createdAt,value
2022-11-21T00:01:19.869Z,97471.81
2022-11-21T00:03:48.569Z,97474.72
2022-11-21T00:06:16.691Z,97478.75
2022-11-21T00:08:45.546Z,97470.94
2022-11-21T00:11:15.321Z,97466.94
2022-11-21T00:13:44.045Z,97453.59
2022-11-21T00:16:13.852Z,97449.81
2022-11-21T00:18:44.225Z,97435.66
2022-11-21T00:21:14.123Z,97427.03
2022-11-21T00:23:42.608Z,97438.06
2022-11-21T00:26:12.401Z,97427.00
2022-11-21T00:28:42.506Z,97441.94
2022-11-21T00:31:11.075Z,97429.72
2022-11-21T00:33:39.863Z,97443.75
2022-11-21T00:36:09.155Z,97440.56
2022-11-21T00:38:41.028Z,97436.78
2022-11-21T00:41:09.025Z,97420.47
2022-11-21T00:43:37.419Z,97421.81
2022-11-21T00:46:06.959Z,97415.09
2022-11-21T00:48:35.481Z,97421.06
2022-11-21T00:51:03.497Z,97411.81
2022-11-21T00:53:31.914Z,97410.16
2022-11-21T00:56:00.023Z,97406.91
2022-11-21T00:58:28.729Z,97408.53
2022-11-21T01:01:06.609Z,97414.59
2022-11-21T01:03:35.664Z,97417.25
2022-11-21T01:06:05.485Z,97414.03
2022-11-21T01:08:35.199Z,97408.53
2022-11-21T01:11:05.040Z,97401.28
2022-11-21T01:13:33.748Z,97395.81
2022-11-21T01:16:06.840Z,97393.41
2022-11-21T01:18:35.360Z,97389.47
2022-11-21T01:21:04.335Z,97396.50
2022-11-21T01:23:32.887Z,97393.09
2022-11-21T01:26:03.597Z,97390.50
2022-11-21T01:28:32.292Z,97386.72
2022-11-21T01:31:06.782Z,97374.47
2022-11-21T01:33:35.555Z,97379.91
2022-11-21T01:36:10.895Z,97387.09
2022-11-21T01:38:39.488Z,97382.16
2022-11-21T01:41:07.893Z,97389.31
2022-11-21T01:43:36.246Z,97385.75
2022-11-21T01:46:12.372Z,97376.28
2022-11-21T01:48:46.371Z,97379.75
2022-11-21T01:51:19.751Z,97391.94
2022-11-21T01:53:51.075Z,97386.09
2022-11-21T01:56:19.105Z,97383.63
2022-11-21T01:58:47.866Z,97377.81
2022-11-21T02:01:17.343Z,97381.09
2022-11-21T02:03:46.793Z,97379.47
2022-11-21T02:06:14.808Z,97377.56
2022-11-21T02:08:44.243Z,97379.91
2022-11-21T02:11:17.551Z,97374.88
2022-11-21T02:13:45.785Z,97380.69
2022-11-21T02:16:13.775Z,97383.38
2022-11-21T02:18:43.503Z,97378.75
2022-11-21T02:21:16.911Z,97377.19
2022-11-21T02:23:51.353Z,97373.16
2022-11-21T02:26:20.884Z,97371.72
2022-11-21T02:28:49.267Z,97370.91
2022-11-21T02:31:17.300Z,97375.44
2022-11-21T02:33:45.584Z,97368.72
2022-11-21T02:36:37.314Z,97366.50
2022-11-21T02:39:06.908Z,97363.53
2022-11-21T02:41:36.955Z,97357.06
2022-11-21T02:44:09.618Z,97347.34
2022-11-21T02:46:37.649Z,97347.28
2022-11-21T02:49:08.691Z,97344.50
2022-11-21T02:51:36.760Z,97351.94
2022-11-21T02:54:05.267Z,97357.63
2022-11-21T02:56:33.359Z,97366.19
2022-11-21T02:59:03.355Z,97356.19
2022-11-21T03:01:31.656Z,97358.19
2022-11-21T03:04:00.094Z,97360.16
2022-11-21T03:06:28.135Z,97363.41
2022-11-21T03:08:56.489Z,97359.66
2022-11-21T03:11:24.665Z,97355.56
2022-11-21T03:13:52.950Z,97347.09
2022-11-21T03:16:22.477Z,97346.63
2022-11-21T03:18:50.837Z,97342.06
2022-11-21T03:21:19.629Z,97341.44
2022-11-21T03:23:48.030Z,97339.00
2022-11-21T03:26:16.209Z,97331.16
2022-11-21T03:28:44.737Z,97328.84
2022-11-21T03:31:12.807Z,97324.53
2022-11-21T03:33:42.451Z,97327.22
2022-11-21T03:36:10.629Z,97324.97
2022-11-21T03:38:39.145Z,97325.84
2022-11-21T03:41:28.045Z,97327.56
2022-11-21T03:43:56.693Z,97317.00
2022-11-21T03:46:24.847Z,97323.34
2022-11-21T03:48:54.735Z,97317.19
2022-11-21T03:51:25.738Z,97317.09
2022-11-21T03:53:54.011Z,97312.69
2022-11-21T03:56:22.380Z,97308.19
2022-11-21T03:58:50.744Z,97301.00
2022-11-21T04:01:18.898Z,97297.16
2022-11-21T04:03:47.817Z,97293.97
2022-11-21T04:06:19.320Z,97293.56
2022-11-21T04:08:48.003Z,97285.88
2022-11-21T04:11:16.332Z,97278.47
2022-11-21T04:13:44.696Z,97274.97
2022-11-21T04:16:12.693Z,97280.09
2022-11-21T04:18:41.250Z,97273.38
2022-11-21T04:21:09.752Z,97267.69
2022-11-21T04:23:39.571Z,97268.41
2022-11-21T04:26:07.635Z,97263.47
2022-11-21T04:28:36.218Z,97264.06
2022-11-21T04:31:09.870Z,97258.78
2022-11-21T04:33:39.573Z,97252.09
2022-11-21T04:36:08.188Z,97241.19
2022-11-21T04:38:36.961Z,97244.00
2022-11-21T04:41:06.634Z,97249.69
2022-11-21T04:43:34.997Z,97246.53
2022-11-21T04:46:03.045Z,97245.28
2022-11-21T04:48:32.770Z,97250.16
2022-11-21T04:51:00.861Z,97252.47
2022-11-21T04:53:29.237Z,97242.56
2022-11-21T04:55:57.287Z,97238.25
2022-11-21T04:58:27.113Z,97234.44
2022-11-21T05:00:55.197Z,97232.22
2022-11-21T05:03:23.666Z,97222.84
2022-11-21T05:05:51.761Z,97220.41
2022-11-21T05:08:20.146Z,97220.88
2022-11-21T05:11:05.800Z,97216.03
2022-11-21T05:13:35.540Z,97215.78
2022-11-21T05:16:03.667Z,97221.25
2022-11-21T05:18:32.183Z,97218.56
2022-11-21T05:21:00.321Z,97213.03
2022-11-21T05:23:29.078Z,97213.22
2022-11-21T05:25:57.378Z,97211.66
2022-11-21T05:28:26.366Z,97210.94
2022-11-21T05:30:55.794Z,97214.84
2022-11-21T05:33:24.196Z,97210.22
2022-11-21T05:35:52.347Z,97208.75
2022-11-21T05:38:20.729Z,97206.56
2022-11-21T05:40:49.030Z,97205.53
2022-11-21T05:43:34.808Z,97204.69
2022-11-21T05:46:04.503Z,97209.34
2022-11-21T05:48:34.287Z,97207.44
2022-11-21T05:51:02.482Z,97213.94
2022-11-21T05:53:30.874Z,97225.38
2022-11-21T05:56:03.209Z,97229.94
2022-11-21T05:58:31.602Z,97235.97
2022-11-21T06:01:00.661Z,97229.75
2022-11-21T06:03:31.336Z,97231.47
2022-11-21T06:06:03.690Z,97227.03
2022-11-21T06:08:33.469Z,97223.94
2022-11-21T06:11:03.233Z,97222.25
2022-11-21T06:13:33.708Z,97224.06
2022-11-21T06:16:03.661Z,97213.47
2022-11-21T06:18:35.513Z,97199.94
2022-11-21T06:21:04.591Z,97208.81
2022-11-21T06:23:33.350Z,97206.47
2022-11-21T06:26:02.938Z,97215.09
2022-11-21T06:28:33.704Z,97208.94
2022-11-21T06:31:04.450Z,97209.72
2022-11-21T06:33:34.542Z,97209.91
2022-11-21T06:36:03.866Z,97201.88
2022-11-21T06:38:32.620Z,97202.50
2022-11-21T06:41:05.165Z,97202.63
2022-11-21T06:43:33.437Z,97206.84
2022-11-21T06:46:03.463Z,97203.03
2022-11-21T06:48:32.206Z,97197.25
2022-11-21T06:51:05.552Z,97195.38
2022-11-21T06:53:34.051Z,97203.31
2022-11-21T06:56:02.760Z,97196.34
2022-11-21T06:58:31.457Z,97198.50
2022-11-21T07:00:59.989Z,97195.19
2022-11-21T07:03:28.302Z,97191.31
2022-11-21T07:05:59.707Z,97188.13
2022-11-21T07:08:29.903Z,97198.69
2022-11-21T07:11:24.140Z,97190.66
2022-11-21T07:13:51.363Z,97195.28
2022-11-21T07:16:19.629Z,97191.03
2022-11-21T07:18:48.047Z,97175.69
2022-11-21T07:21:16.279Z,97195.53
2022-11-21T07:23:46.097Z,97173.91
2022-11-21T07:26:14.260Z,97176.78
2022-11-21T07:28:42.941Z,97188.91
2022-11-21T07:31:14.168Z,97184.38
2022-11-21T07:33:44.335Z,97179.19
2022-11-21T07:36:12.793Z,97183.25
2022-11-21T07:38:42.417Z,97179.03
2022-11-21T07:41:12.002Z,97186.47
2022-11-21T07:43:40.413Z,97181.50
2022-11-21T07:46:09.047Z,97177.47
2022-11-21T07:48:37.669Z,97163.94
2022-11-21T07:51:06.691Z,97166.72
2022-11-21T07:53:35.113Z,97158.56
2022-11-21T07:56:03.303Z,97166.09
2022-11-21T07:58:33.315Z,97158.94
2022-11-21T08:01:04.751Z,97156.78
2022-11-21T08:03:33.890Z,97166.25
2022-11-21T08:06:02.876Z,97154.88
2022-11-21T08:08:31.653Z,97146.22
2022-11-21T08:10:59.911Z,97150.00
2022-11-21T08:13:30.386Z,97148.63
2022-11-21T08:15:59.997Z,97145.34
2022-11-21T08:18:28.479Z,97153.78
2022-11-21T08:20:56.653Z,97143.22
2022-11-21T08:23:25.053Z,97147.84
2022-11-21T08:25:53.205Z,97149.75
2022-11-21T08:28:21.709Z,97152.19
2022-11-21T08:30:54.487Z,97153.78
2022-11-21T08:33:24.358Z,97148.91
2022-11-21T08:35:52.375Z,97162.72
2022-11-21T08:38:20.775Z,97158.66
2022-11-21T08:41:14.695Z,97161.91
2022-11-21T08:43:45.845Z,97158.38
2022-11-21T08:46:14.059Z,97157.84
2022-11-21T08:48:43.888Z,97158.28
2022-11-21T08:51:12.064Z,97154.78
2022-11-21T08:53:40.482Z,97159.94
2022-11-21T08:56:08.682Z,97155.31
2022-11-21T08:58:37.129Z,97154.22
2022-11-21T09:01:06.301Z,97156.31
2022-11-21T09:03:35.363Z,97151.34
2022-11-21T09:06:04.981Z,97144.09
2022-11-21T09:08:33.440Z,97144.91
2022-11-21T09:11:05.507Z,97142.72
2022-11-21T09:13:33.977Z,97136.56
2022-11-21T09:16:20.721Z,97138.91
2022-11-21T09:18:49.654Z,97136.41
2022-11-21T09:21:20.430Z,97124.66
2022-11-21T09:23:48.911Z,97127.19
2022-11-21T09:26:17.067Z,97128.50
2022-11-21T09:28:45.599Z,97129.13
2022-11-21T09:31:13.716Z,97121.31
2022-11-21T09:33:42.102Z,97122.84
2022-11-21T09:36:10.434Z,97117.28
2022-11-21T09:38:40.247Z,97122.34
2022-11-21T09:41:34.477Z,97114.31
2022-11-21T09:44:07.454Z,97108.84
2022-11-21T09:46:39.124Z,97107.63
2022-11-21T09:49:08.680Z,97104.59
2022-11-21T09:51:38.959Z,97101.44
2022-11-21T09:54:16.011Z,97105.94
2022-11-21T09:56:44.314Z,97102.16
2022-11-21T09:59:28.473Z,97094.66
2022-11-21T10:01:57.133Z,97100.34
2022-11-21T10:04:25.990Z,97100.78
2022-11-21T10:07:03.290Z,97095.59
2022-11-21T10:09:44.668Z,97087.34
2022-11-21T10:12:41.027Z,97093.34
2022-11-21T10:15:20.898Z,97090.38
2022-11-21T10:17:59.261Z,97084.31
2022-11-21T10:20:35.130Z,97090.53
2022-11-21T10:23:30.590Z,97086.53
2022-11-21T10:26:15.121Z,97084.34
2022-11-21T10:28:49.293Z,97082.50
2022-11-21T10:31:18.567Z,97087.59
2022-11-21T10:33:46.898Z,97083.50
2022-11-21T10:36:24.821Z,97086.84
2022-11-21T10:38:53.271Z,97087.34
2022-11-21T10:41:26.087Z,97085.59
2022-11-21T10:44:18.217Z,97067.19
2022-11-21T10:46:56.374Z,97077.03
2022-11-21T10:49:25.628Z,97070.72
2022-11-21T10:51:58.595Z,97072.84
2022-11-21T10:54:35.607Z,97068.91
2022-11-21T10:57:12.322Z,97074.94
2022-11-21T10:59:40.599Z,97079.72
2022-11-21T11:02:25.286Z,97073.34
2022-11-21T11:05:20.092Z,97072.41
2022-11-21T11:08:01.850Z,97074.47
2022-11-21T11:10:29.985Z,97072.69
2022-11-21T11:16:17.346Z,97084.47
2022-11-21T11:18:51.305Z,97080.41
2022-11-21T11:21:21.725Z,97078.25
2022-11-21T11:23:51.087Z,97075.50
2022-11-21T11:26:22.604Z,97090.94
2022-11-21T11:28:52.716Z,97076.22
2022-11-21T11:31:20.818Z,97075.97
2022-11-21T11:33:54.166Z,97065.41
2022-11-21T11:36:33.936Z,97069.56
2022-11-21T11:39:11.038Z,97068.47
2022-11-21T11:42:16.939Z,97064.06
2022-11-21T11:45:13.035Z,97061.81
2022-11-21T11:47:50.444Z,97062.44
2022-11-21T11:50:25.414Z,97068.63
2022-11-21T11:53:00.216Z,97059.75
2022-11-21T11:55:35.276Z,97061.31
2022-11-21T11:58:06.684Z,97067.91
2022-11-21T12:00:42.652Z,97057.34
2022-11-21T12:03:16.097Z,97067.66
2022-11-21T12:05:54.538Z,97065.97
2022-11-21T12:08:42.630Z,97064.78
2022-11-21T12:11:44.047Z,97069.09
2022-11-21T12:14:35.874Z,97057.13
2022-11-21T12:17:07.877Z,97060.78
2022-11-21T12:19:36.734Z,97060.75
2022-11-21T12:22:06.685Z,97065.31
2022-11-21T12:24:41.369Z,97060.53
2022-11-21T12:27:22.577Z,97064.41
2022-11-21T12:30:05.947Z,97056.41
2022-11-21T12:32:57.263Z,97052.28
2022-11-21T12:35:43.069Z,97048.75
2022-11-21T12:38:22.029Z,97049.72
2022-11-21T12:41:01.026Z,97037.81
2022-11-21T12:43:35.081Z,97042.81
2022-11-21T12:46:11.027Z,97043.31
2022-11-21T12:49:10.478Z,97040.88
2022-11-21T12:52:14.029Z,97047.13
2022-11-21T12:54:57.793Z,97043.59
2022-11-21T12:57:34.059Z,97038.06
2022-11-21T13:00:09.584Z,97045.72
2022-11-21T13:02:49.963Z,97037.50
2022-11-21T13:05:26.343Z,97041.56
2022-11-21T13:08:03.879Z,97046.34
2022-11-21T13:10:32.974Z,97050.22
2022-11-21T13:13:07.244Z,97047.53
2022-11-21T13:15:41.037Z,97049.22
2022-11-21T13:18:18.674Z,97044.28
2022-11-21T13:20:50.593Z,97052.00
2022-11-21T13:23:38.429Z,97047.88
2022-11-21T13:26:44.475Z,97049.06
2022-11-21T13:29:14.317Z,97045.56
2022-11-21T13:31:43.588Z,97052.88
2022-11-21T13:34:36.655Z,97054.75
2022-11-21T13:37:07.240Z,97048.91
2022-11-21T13:39:39.161Z,97043.31
2022-11-21T13:42:26.862Z,97050.91
2022-11-21T13:44:55.073Z,97059.59
2022-11-21T13:47:56.651Z,97041.38
2022-11-21T13:50:44.255Z,97054.56
2022-11-21T13:53:30.731Z,97047.84
2022-11-21T13:56:01.254Z,97055.97
2022-11-21T13:58:47.345Z,97058.88
2022-11-21T14:01:33.735Z,97064.16
2022-11-21T14:04:17.262Z,97058.50
2022-11-21T14:06:45.772Z,97061.03
2022-11-21T14:09:36.473Z,97056.31
2022-11-21T14:12:06.524Z,97041.19
2022-11-21T14:14:40.568Z,97053.31
2022-11-21T14:17:33.379Z,97060.22
2022-11-21T14:20:09.319Z,97050.75
2022-11-21T14:22:45.531Z,97062.91
2022-11-21T14:25:18.974Z,97064.59
2022-11-21T14:27:49.269Z,97064.28
2022-11-21T14:30:37.508Z,97059.88
2022-11-21T14:33:28.551Z,97062.00
2022-11-21T14:36:00.569Z,97065.72
2022-11-21T14:38:29.538Z,97070.31
2022-11-21T14:41:27.355Z,97070.78
2022-11-21T14:44:07.165Z,97064.69
2022-11-21T14:46:37.033Z,97079.06
2022-11-21T14:49:26.908Z,97078.84
2022-11-21T14:52:03.351Z,97077.84
2022-11-21T14:54:34.418Z,97077.16
2022-11-21T14:57:04.580Z,97069.72
2022-11-21T14:59:34.137Z,97077.75
2022-11-21T15:02:04.889Z,97079.06
2022-11-21T15:04:34.797Z,97077.94
2022-11-21T15:07:03.392Z,97078.78
2022-11-21T15:12:25.825Z,97080.09
2022-11-21T15:14:56.181Z,97085.16
2022-11-21T15:17:25.704Z,97071.69
2022-11-21T15:20:11.589Z,97076.63
2022-11-21T15:22:42.330Z,97079.78
2022-11-21T15:25:17.013Z,97079.06
2022-11-21T15:27:47.198Z,97084.13
2022-11-21T15:30:26.100Z,97084.03
2022-11-21T15:33:08.414Z,97085.84
2022-11-21T15:35:47.137Z,97087.38
2022-11-21T15:38:21.607Z,97084.91
2022-11-21T15:41:04.921Z,97085.94
2022-11-21T15:43:45.233Z,97092.13
2022-11-21T15:46:16.885Z,97078.00
2022-11-21T15:48:49.738Z,97082.84
2022-11-21T15:51:31.863Z,97081.28
2022-11-21T15:54:08.092Z,97086.53
2022-11-21T15:56:36.272Z,97088.72
2022-11-21T15:59:06.108Z,97092.03
2022-11-21T16:01:34.403Z,97085.63
2022-11-21T16:04:05.241Z,97085.63
2022-11-21T16:06:34.377Z,97084.75
2022-11-21T16:09:03.022Z,97087.47
2022-11-21T16:11:31.976Z,97073.91
2022-11-21T16:14:01.751Z,97070.47
2022-11-21T16:16:34.019Z,97074.56
2022-11-21T16:19:02.456Z,97075.84
2022-11-21T16:21:30.562Z,97076.31
2022-11-21T16:23:59.152Z,97076.81
2022-11-21T16:26:28.824Z,97074.41
2022-11-21T16:28:57.615Z,97076.09
2022-11-21T16:31:27.038Z,97073.91
2022-11-21T16:33:57.053Z,97076.97
2022-11-21T16:36:27.491Z,97079.78
2022-11-21T16:39:00.519Z,97077.72
2022-11-21T16:41:31.730Z,97071.75
2022-11-21T16:44:00.178Z,97079.72
2022-11-21T16:46:28.399Z,97076.41
2022-11-21T16:49:01.416Z,97079.69
2022-11-21T16:51:29.752Z,97072.91
2022-11-21T16:54:02.884Z,97074.41
2022-11-21T16:56:36.655Z,97078.97
2022-11-21T16:59:05.315Z,97078.63
2022-11-21T17:01:33.765Z,97084.41
2022-11-21T17:04:03.703Z,97084.22
2022-11-21T17:06:32.478Z,97077.47
2022-11-21T17:09:01.982Z,97082.50
2022-11-21T17:11:31.900Z,97080.75
2022-11-21T17:14:03.241Z,97084.19
2022-11-21T17:16:31.783Z,97085.22
2022-11-21T17:19:01.752Z,97088.72
2022-11-21T17:21:31.815Z,97081.28
2022-11-21T17:24:00.316Z,97082.19
2022-11-21T17:26:30.757Z,97073.50
2022-11-21T17:29:00.382Z,97084.59
2022-11-21T17:31:29.005Z,97096.25
2022-11-21T17:33:57.764Z,97086.16
2022-11-21T17:36:28.158Z,97091.69
2022-11-21T17:38:58.064Z,97093.69
2022-11-21T17:41:26.382Z,97090.38
2022-11-21T17:43:55.983Z,97095.44
2022-11-21T17:46:25.461Z,97100.38
2022-11-21T17:48:59.148Z,97092.16
2022-11-21T17:51:29.133Z,97096.69
2022-11-21T17:53:59.611Z,97099.97
2022-11-21T17:56:29.448Z,97098.88
2022-11-21T17:58:57.901Z,97102.25
2022-11-21T18:01:26.515Z,97107.28
2022-11-21T18:03:57.197Z,97110.00
2022-11-21T18:06:26.460Z,97110.00
2022-11-21T18:08:58.603Z,97108.19
2022-11-21T18:11:32.026Z,97108.94
2022-11-21T18:14:05.230Z,97107.03
2022-11-21T18:16:34.437Z,97104.22
2022-11-21T18:19:03.118Z,97104.19
2022-11-21T18:21:32.446Z,97110.00
2022-11-21T18:24:02.178Z,97108.22
2022-11-21T18:26:32.011Z,97108.94
2022-11-21T18:29:28.533Z,97109.31
2022-11-21T18:31:50.158Z,97099.66
2022-11-21T18:34:18.689Z,97104.31
2022-11-21T18:36:47.761Z,97113.16
2022-11-21T18:39:17.543Z,97113.66
2022-11-21T18:41:46.996Z,97113.09
2022-11-21T18:44:21.360Z,97106.53
2022-11-21T18:46:50.614Z,97113.00
2022-11-21T18:49:19.101Z,97114.69
2022-11-21T18:51:48.799Z,97115.13
2022-11-21T18:54:18.902Z,97117.84
2022-11-21T18:56:47.286Z,97115.56
2022-11-21T18:59:16.067Z,97116.13
2022-11-21T19:01:44.369Z,97112.53
2022-11-21T19:04:13.239Z,97118.81
2022-11-21T19:06:41.638Z,97128.09
2022-11-21T19:09:11.654Z,97129.81
2022-11-21T19:11:41.827Z,97121.75
2022-11-21T19:14:10.172Z,97134.84
2022-11-21T19:16:38.376Z,97136.97
2022-11-21T19:21:56.111Z,97138.50
2022-11-21T19:24:24.508Z,97142.91
2022-11-21T19:26:56.860Z,97134.09
2022-11-21T19:29:25.217Z,97140.19
2022-11-21T19:31:53.430Z,97137.38
2022-11-21T19:34:21.918Z,97145.06
2022-11-21T19:36:50.243Z,97139.06
2022-11-21T19:39:19.160Z,97141.88
2022-11-21T19:41:49.860Z,97139.22
2022-11-21T19:44:19.955Z,97134.97
2022-11-21T19:46:49.708Z,97139.41
2022-11-21T19:49:19.486Z,97144.97
2022-11-21T19:51:47.821Z,97149.63
2022-11-21T19:54:17.070Z,97158.06
2022-11-21T19:56:45.175Z,97159.53
2022-11-21T19:59:14.822Z,97162.59
2022-11-21T20:01:49.516Z,97170.22
2022-11-21T20:04:21.096Z,97163.00
2022-11-21T20:06:49.543Z,97167.69
2022-11-21T20:09:19.518Z,97164.97
2022-11-21T20:11:49.399Z,97167.41
2022-11-21T20:14:22.341Z,97169.84
2022-11-21T20:16:53.940Z,97170.03
2022-11-21T20:19:24.153Z,97167.34
2022-11-21T20:21:52.956Z,97176.06
2022-11-21T20:24:21.379Z,97172.88
2022-11-21T20:26:49.701Z,97179.09
2022-11-21T20:29:18.096Z,97175.41
2022-11-21T20:31:48.416Z,97176.13
2022-11-21T20:34:18.354Z,97178.47
2022-11-21T20:36:46.922Z,97181.66
2022-11-21T20:39:17.183Z,97178.63
2022-11-21T20:41:46.490Z,97181.56
2022-11-21T20:47:04.720Z,97178.41
2022-11-21T20:49:34.835Z,97180.16
2022-11-21T20:54:51.435Z,97179.91
2022-11-21T20:57:19.529Z,97182.13
2022-11-21T20:59:47.921Z,97175.47
2022-11-21T21:02:16.007Z,97184.56
2022-11-21T21:04:45.949Z,97186.88
2022-11-21T21:07:14.281Z,97185.56
2022-11-21T21:09:42.836Z,97185.75
2022-11-21T21:12:10.931Z,97184.44
2022-11-21T21:14:39.298Z,97181.91
2022-11-21T21:17:07.612Z,97184.56
2022-11-21T21:19:36.039Z,97185.28
2022-11-21T21:22:06.134Z,97182.38
2022-11-21T21:24:34.500Z,97179.31
2022-11-21T21:27:02.554Z,97182.84
2022-11-21T21:29:31.437Z,97184.78
2022-11-21T21:31:59.685Z,97177.47
2022-11-21T21:34:28.577Z,97178.81
2022-11-21T21:36:57.081Z,97169.53
2022-11-21T21:39:27.359Z,97174.06
2022-11-21T21:41:55.678Z,97165.47
2022-11-21T21:44:28.340Z,97169.69
2022-11-21T21:46:59.901Z,97168.56
2022-11-21T21:49:28.206Z,97175.09
2022-11-21T21:51:56.377Z,97165.75
2022-11-21T21:54:26.112Z,97172.44
2022-11-21T21:56:54.231Z,97171.56
2022-11-21T21:59:22.631Z,97161.19
2022-11-21T22:01:50.712Z,97162.84
2022-11-21T22:04:19.217Z,97152.91
2022-11-21T22:06:47.238Z,97164.66
2022-11-21T22:09:15.631Z,97158.19
2022-11-21T22:11:45.362Z,97153.06
2022-11-21T22:14:15.329Z,97151.66
2022-11-21T22:16:44.222Z,97153.44
2022-11-21T22:19:12.756Z,97146.06
2022-11-21T22:21:41.052Z,97140.91
2022-11-21T22:24:28.712Z,97124.09
2022-11-21T22:26:58.216Z,97136.41
2022-11-21T22:29:26.635Z,97131.50
2022-11-21T22:31:54.640Z,97130.47
2022-11-21T22:34:23.279Z,97134.25
2022-11-21T22:36:51.410Z,97132.91
2022-11-21T22:39:20.273Z,97123.44
2022-11-21T22:41:48.604Z,97123.44
2022-11-21T22:44:19.189Z,97121.31
2022-11-21T22:46:47.354Z,97121.31
2022-11-21T22:49:15.863Z,97118.84
2022-11-21T22:51:45.053Z,97120.00
2022-11-21T22:54:13.757Z,97123.78
2022-11-21T22:56:42.210Z,97125.13
2022-11-21T22:59:13.338Z,97136.28
2022-11-21T23:01:42.782Z,97126.34
2022-11-21T23:04:17.305Z,97124.59
2022-11-21T23:06:57.630Z,97129.22
2022-11-21T23:09:26.033Z,97124.31
2022-11-21T23:11:54.313Z,97117.94
2022-11-21T23:14:22.934Z,97122.56
2022-11-21T23:16:52.506Z,97124.56
2022-11-21T23:19:20.902Z,97129.09
2022-11-21T23:21:48.977Z,97124.28
2022-11-21T23:24:17.250Z,97130.03
2022-11-21T23:26:45.491Z,97126.53
2022-11-21T23:29:14.087Z,97130.88
2022-11-21T23:31:42.243Z,97121.09
2022-11-21T23:34:12.158Z,97121.44
2022-11-21T23:36:40.371Z,97123.78
2022-11-21T23:39:09.274Z,97120.78
2022-11-21T23:41:37.543Z,97115.78
2022-11-21T23:44:06.277Z,97120.97
2022-11-21T23:46:34.277Z,97115.00
2022-11-21T23:49:02.941Z,97112.06
2022-11-21T23:51:32.450Z,97120.88
2022-11-21T23:54:00.949Z,97113.16
2022-11-21T23:56:28.977Z,97121.53
2022-11-21T23:58:57.295Z,97111.47
